createdAt,value
2022-10-06T00:00:33.764Z,21.00
2022-10-06T00:03:04.508Z,21.00
2022-10-06T00:05:36.927Z,21.00
2022-10-06T00:08:10.265Z,20.90
2022-10-06T00:10:41.422Z,20.90
2022-10-06T00:13:12.347Z,20.80
2022-10-06T00:15:43.157Z,20.80
2022-10-06T00:18:13.941Z,20.80
2022-10-06T00:20:46.370Z,20.80
2022-10-06T00:23:18.838Z,20.70
2022-10-06T00:25:49.562Z,20.70
2022-10-06T00:28:20.427Z,20.80
2022-10-06T00:30:54.082Z,20.70
2022-10-06T00:33:24.915Z,20.60
2022-10-06T00:36:02.319Z,20.60
2022-10-06T00:38:33.368Z,20.50
2022-10-06T00:41:04.227Z,20.40
2022-10-06T00:43:48.078Z,20.40
2022-10-06T00:46:40.913Z,20.30
2022-10-06T00:49:16.441Z,20.20
2022-10-06T00:51:51.832Z,20.20
2022-10-06T00:54:23.476Z,20.10
2022-10-06T00:56:55.024Z,20.10
2022-10-06T00:59:26.872Z,20.00
2022-10-06T01:02:04.862Z,19.90
2022-10-06T01:04:37.819Z,19.80
2022-10-06T01:07:11.715Z,19.70
2022-10-06T01:09:42.882Z,19.70
2022-10-06T01:12:13.694Z,19.60
2022-10-06T01:14:45.334Z,19.50
2022-10-06T01:17:21.992Z,19.40
2022-10-06T01:19:56.013Z,19.30
2022-10-06T01:22:33.630Z,19.20
2022-10-06T01:25:05.589Z,19.30
2022-10-06T01:27:38.213Z,19.30
2022-10-06T01:30:11.906Z,19.20
2022-10-06T01:32:44.390Z,19.20
2022-10-06T01:35:15.390Z,19.00
2022-10-06T01:37:47.825Z,19.00
2022-10-06T01:40:19.923Z,18.80
2022-10-06T01:42:50.707Z,18.60
2022-10-06T01:45:21.494Z,18.50
2022-10-06T01:47:52.602Z,18.40
2022-10-06T01:50:23.429Z,18.30
2022-10-06T01:52:57.318Z,18.20
2022-10-06T01:55:28.271Z,18.10
2022-10-06T01:57:59.043Z,18.00
2022-10-06T02:00:29.882Z,17.80
2022-10-06T02:03:01.030Z,17.80
2022-10-06T02:05:31.749Z,17.70
2022-10-06T02:08:04.842Z,17.70
2022-10-06T02:10:37.898Z,17.50
2022-10-06T02:13:08.744Z,17.50
2022-10-06T02:15:39.512Z,17.60
2022-10-06T02:18:10.415Z,17.60
2022-10-06T02:20:41.184Z,17.60
2022-10-06T02:23:13.579Z,17.70
2022-10-06T02:25:44.313Z,17.60
2022-10-06T02:28:15.149Z,17.70
2022-10-06T02:30:46.615Z,17.60
2022-10-06T02:33:17.843Z,17.60
2022-10-06T02:35:48.961Z,17.60
2022-10-06T02:38:21.327Z,17.60
2022-10-06T02:40:52.062Z,17.40
2022-10-06T02:43:23.165Z,17.30
2022-10-06T02:45:57.665Z,17.20
2022-10-06T02:48:29.453Z,17.10
2022-10-06T02:51:01.996Z,17.00
2022-10-06T02:53:35.097Z,17.00
2022-10-06T02:56:07.746Z,17.00
2022-10-06T02:58:39.322Z,16.80
2022-10-06T03:01:11.666Z,16.80
2022-10-06T03:03:42.453Z,16.70
2022-10-06T03:06:24.115Z,16.70
2022-10-06T03:08:58.289Z,16.70
2022-10-06T03:11:30.809Z,16.60
2022-10-06T03:14:01.808Z,16.60
2022-10-06T03:16:34.667Z,16.60
2022-10-06T03:19:05.974Z,16.50
2022-10-06T03:21:38.569Z,16.40
2022-10-06T03:24:11.351Z,16.30
2022-10-06T03:26:43.740Z,16.30
2022-10-06T03:29:14.880Z,16.30
2022-10-06T03:31:46.060Z,16.20
2022-10-06T03:34:16.829Z,16.20
2022-10-06T03:36:47.658Z,16.10
2022-10-06T03:39:20.067Z,16.10
2022-10-06T03:41:50.833Z,16.10
2022-10-06T03:44:22.784Z,16.00
2022-10-06T03:46:53.625Z,15.90
2022-10-06T03:49:24.443Z,15.90
2022-10-06T03:51:56.554Z,15.90
2022-10-06T03:54:28.985Z,15.80
2022-10-06T03:56:59.711Z,15.80
2022-10-06T03:59:34.945Z,15.70
2022-10-06T04:02:06.200Z,15.60
2022-10-06T04:04:36.955Z,15.60
2022-10-06T04:07:07.767Z,15.50
2022-10-06T04:09:40.166Z,15.50
2022-10-06T04:12:10.925Z,15.40
2022-10-06T04:14:41.686Z,15.40
2022-10-06T04:17:12.447Z,15.40
2022-10-06T04:19:43.178Z,15.30
2022-10-06T04:22:13.961Z,15.30
2022-10-06T04:24:46.366Z,15.30
2022-10-06T04:27:32.115Z,15.10
2022-10-06T04:30:02.829Z,15.10
2022-10-06T04:32:33.579Z,15.00
2022-10-06T04:35:04.343Z,15.00
2022-10-06T04:37:35.044Z,14.90
2022-10-06T04:40:08.048Z,14.90
2022-10-06T04:42:38.809Z,14.90
2022-10-06T04:45:10.630Z,14.90
2022-10-06T04:47:41.396Z,14.90
2022-10-06T04:50:12.782Z,14.80
2022-10-06T04:52:43.531Z,14.80
2022-10-06T04:55:15.997Z,14.80
2022-10-06T04:57:46.741Z,14.80
2022-10-06T05:00:26.377Z,14.80
2022-10-06T05:02:57.870Z,14.80
2022-10-06T05:05:30.102Z,14.70
2022-10-06T05:08:00.848Z,14.70
2022-10-06T05:10:33.271Z,14.70
2022-10-06T05:13:04.594Z,14.70
2022-10-06T05:15:35.466Z,14.70
2022-10-06T05:18:06.365Z,14.70
2022-10-06T05:20:37.097Z,14.70
2022-10-06T05:23:10.331Z,14.70
2022-10-06T05:25:43.325Z,14.70
2022-10-06T05:28:15.136Z,14.70
2022-10-06T05:30:45.886Z,14.70
2022-10-06T05:33:16.847Z,14.60
2022-10-06T05:35:54.925Z,14.60
2022-10-06T05:38:26.674Z,14.60
2022-10-06T05:41:07.249Z,14.60
2022-10-06T05:43:38.518Z,14.60
2022-10-06T05:46:10.919Z,14.50
2022-10-06T05:48:41.691Z,14.50
2022-10-06T05:51:13.511Z,14.50
2022-10-06T05:53:44.357Z,14.50
2022-10-06T05:56:18.788Z,14.50
2022-10-06T05:58:50.951Z,14.40
2022-10-06T06:01:23.510Z,14.40
2022-10-06T06:03:55.703Z,14.40
2022-10-06T06:06:27.905Z,14.40
2022-10-06T06:09:00.694Z,14.30
2022-10-06T06:11:34.247Z,14.30
2022-10-06T06:14:07.729Z,14.20
2022-10-06T06:16:39.446Z,14.20
2022-10-06T06:19:11.655Z,14.20
2022-10-06T06:21:44.346Z,14.20
2022-10-06T06:24:15.086Z,14.10
2022-10-06T06:26:47.461Z,14.20
2022-10-06T06:29:18.218Z,14.20
2022-10-06T06:31:49.288Z,14.20
2022-10-06T06:34:20.051Z,14.10
2022-10-06T06:36:55.904Z,14.10
2022-10-06T06:39:26.702Z,14.10
2022-10-06T06:41:59.101Z,14.00
2022-10-06T06:44:30.693Z,13.90
2022-10-06T06:47:02.086Z,13.90
2022-10-06T06:49:32.825Z,13.80
2022-10-06T06:52:05.457Z,13.90
2022-10-06T06:54:36.246Z,13.90
2022-10-06T06:57:08.875Z,13.90
2022-10-06T06:59:39.801Z,14.00
2022-10-06T07:02:12.620Z,14.00
2022-10-06T07:04:44.632Z,13.90
2022-10-06T07:07:15.367Z,13.80
2022-10-06T07:09:46.123Z,13.80
2022-10-06T07:12:18.565Z,13.70
2022-10-06T07:15:06.137Z,13.80
2022-10-06T07:17:53.406Z,13.80
2022-10-06T07:20:40.569Z,13.70
2022-10-06T07:23:34.827Z,13.60
2022-10-06T07:26:05.651Z,13.50
2022-10-06T07:28:38.056Z,13.50
2022-10-06T07:31:09.048Z,13.40
2022-10-06T07:33:41.599Z,13.50
2022-10-06T07:36:12.498Z,13.60
2022-10-06T07:38:43.253Z,13.50
2022-10-06T07:41:19.280Z,13.50
2022-10-06T07:43:54.540Z,13.50
2022-10-06T07:46:25.394Z,13.50
2022-10-06T07:48:56.139Z,13.30
2022-10-06T07:51:28.099Z,13.40
2022-10-06T07:53:58.853Z,13.30
2022-10-06T07:56:29.645Z,13.40
2022-10-06T07:59:02.077Z,13.40
2022-10-06T08:01:32.897Z,13.30
2022-10-06T08:04:07.636Z,13.30
2022-10-06T08:06:39.334Z,13.40
2022-10-06T08:09:10.094Z,13.30
2022-10-06T08:11:40.832Z,13.40
2022-10-06T08:14:15.937Z,13.30
2022-10-06T08:16:46.816Z,13.40
2022-10-06T08:19:20.376Z,13.40
2022-10-06T08:21:51.126Z,13.40
2022-10-06T08:24:22.163Z,13.40
2022-10-06T08:26:52.901Z,13.40
2022-10-06T08:29:25.272Z,13.40
2022-10-06T08:31:56.094Z,13.30
2022-10-06T08:34:26.920Z,13.30
2022-10-06T08:37:18.681Z,13.20
2022-10-06T08:39:48.809Z,13.20
2022-10-06T08:42:25.362Z,13.20
2022-10-06T08:45:01.994Z,13.30
2022-10-06T08:47:36.806Z,13.20
2022-10-06T08:50:11.789Z,13.20
2022-10-06T08:52:53.484Z,13.30
2022-10-06T08:55:44.774Z,13.30
2022-10-06T08:58:35.193Z,13.30
2022-10-06T09:01:17.959Z,13.30
2022-10-06T09:03:52.680Z,13.30
2022-10-06T09:06:38.854Z,13.40
2022-10-06T09:09:22.179Z,13.40
2022-10-06T09:12:03.611Z,13.50
2022-10-06T09:14:40.422Z,13.60
2022-10-06T09:17:19.307Z,13.60
2022-10-06T09:19:54.938Z,13.60
2022-10-06T09:22:27.186Z,13.60
2022-10-06T09:25:02.418Z,13.60
2022-10-06T09:27:37.476Z,13.60
2022-10-06T09:30:10.548Z,13.60
2022-10-06T09:32:48.892Z,13.70
2022-10-06T09:35:23.133Z,13.70
2022-10-06T09:38:00.662Z,13.70
2022-10-06T09:40:42.749Z,13.70
2022-10-06T09:43:22.805Z,13.80
2022-10-06T09:45:55.653Z,13.70
2022-10-06T09:48:29.768Z,13.70
2022-10-06T09:51:16.577Z,13.70
2022-10-06T09:54:09.056Z,13.80
2022-10-06T09:56:44.323Z,13.80
2022-10-06T09:59:23.945Z,13.90
2022-10-06T10:01:56.196Z,13.90
2022-10-06T10:04:31.140Z,13.90
2022-10-06T10:07:25.071Z,13.90
2022-10-06T10:09:57.532Z,13.90
2022-10-06T10:12:32.362Z,13.80
2022-10-06T10:15:05.916Z,13.90
2022-10-06T10:17:50.209Z,13.90
2022-10-06T10:20:30.749Z,14.00
2022-10-06T10:23:03.256Z,14.00
2022-10-06T10:25:49.935Z,14.10
2022-10-06T10:28:34.743Z,14.10
2022-10-06T10:31:13.619Z,14.10
2022-10-06T10:34:05.053Z,14.10
2022-10-06T10:36:51.620Z,14.20
2022-10-06T10:39:31.878Z,14.20
2022-10-06T10:42:04.650Z,14.20
2022-10-06T10:44:39.453Z,14.30
2022-10-06T10:47:20.634Z,14.30
2022-10-06T10:49:59.464Z,14.40
2022-10-06T10:52:35.118Z,14.40
2022-10-06T10:55:18.629Z,14.40
2022-10-06T10:57:51.810Z,14.40
2022-10-06T11:00:26.097Z,14.40
2022-10-06T11:02:58.756Z,14.40
2022-10-06T11:05:44.291Z,14.40
2022-10-06T11:08:25.872Z,14.40
2022-10-06T11:11:00.275Z,14.40
2022-10-06T11:13:35.536Z,14.50
2022-10-06T11:16:30.498Z,14.50
2022-10-06T11:19:25.419Z,14.60
2022-10-06T11:22:05.759Z,14.60
2022-10-06T11:24:46.544Z,14.70
2022-10-06T11:27:30.351Z,14.70
2022-10-06T11:30:08.294Z,14.70
2022-10-06T11:32:51.867Z,14.80
2022-10-06T11:35:25.007Z,14.70
2022-10-06T11:38:02.508Z,14.80
2022-10-06T11:40:51.516Z,14.80
2022-10-06T11:43:34.497Z,14.80
2022-10-06T11:46:12.755Z,14.90
2022-10-06T11:48:44.569Z,14.90
2022-10-06T11:51:34.173Z,14.80
2022-10-06T11:54:04.957Z,14.90
2022-10-06T11:56:46.166Z,14.90
2022-10-06T11:59:28.474Z,15.00
2022-10-06T12:02:03.563Z,15.00
2022-10-06T12:04:34.364Z,14.90
2022-10-06T12:07:06.402Z,14.80
2022-10-06T12:10:17.467Z,14.80
2022-10-06T12:13:06.795Z,14.90
2022-10-06T12:18:52.042Z,14.90
2022-10-06T12:21:49.699Z,14.90
2022-10-06T12:24:34.268Z,14.90
2022-10-06T12:27:25.838Z,14.90
2022-10-06T12:30:04.814Z,14.80
2022-10-06T12:32:51.577Z,14.80
2022-10-06T12:35:36.431Z,14.80
2022-10-06T12:38:07.449Z,14.80
2022-10-06T12:40:56.993Z,14.90
2022-10-06T12:43:34.003Z,14.90
2022-10-06T12:46:08.514Z,15.00
2022-10-06T12:48:44.409Z,14.90
2022-10-06T12:54:21.133Z,14.90
2022-10-06T12:57:02.185Z,14.90
2022-10-06T12:59:34.686Z,14.80
2022-10-06T13:02:12.164Z,14.80
2022-10-06T13:04:45.514Z,14.80
2022-10-06T13:07:20.763Z,14.80
2022-10-06T13:09:54.186Z,14.80
2022-10-06T13:12:28.324Z,14.90
2022-10-06T13:15:24.704Z,14.80
2022-10-06T13:18:00.066Z,14.80
2022-10-06T13:20:40.586Z,14.90
2022-10-06T13:23:29.639Z,14.90
2022-10-06T13:26:02.860Z,14.90
2022-10-06T13:28:48.114Z,15.00
2022-10-06T13:31:24.739Z,15.00
2022-10-06T13:34:01.041Z,15.00
2022-10-06T13:36:32.961Z,15.00
2022-10-06T13:39:06.528Z,15.00
2022-10-06T13:41:39.916Z,15.10
2022-10-06T13:44:31.747Z,15.10
2022-10-06T13:47:05.267Z,15.10
2022-10-06T13:49:45.423Z,15.10
2022-10-06T13:52:21.029Z,15.10
2022-10-06T13:54:55.748Z,15.10
2022-10-06T13:57:50.675Z,15.10
2022-10-06T14:00:25.796Z,15.10
2022-10-06T14:02:59.653Z,15.10
2022-10-06T14:05:40.910Z,15.10
2022-10-06T14:08:24.886Z,15.10
2022-10-06T14:10:57.859Z,15.10
2022-10-06T14:13:30.536Z,15.00
2022-10-06T14:16:03.014Z,15.10
2022-10-06T14:18:40.313Z,15.10
2022-10-06T14:21:29.977Z,15.10
2022-10-06T14:24:03.625Z,15.10
2022-10-06T14:26:38.123Z,15.10
2022-10-06T14:29:08.894Z,15.00
2022-10-06T14:31:39.694Z,15.00
2022-10-06T14:34:15.313Z,15.00
2022-10-06T14:36:49.488Z,15.00
2022-10-06T14:39:20.728Z,15.10
2022-10-06T14:41:51.681Z,15.10
2022-10-06T14:44:22.426Z,15.10
2022-10-06T14:46:54.190Z,15.10
2022-10-06T14:49:26.246Z,15.10
2022-10-06T14:51:58.612Z,15.00
2022-10-06T14:54:29.511Z,15.10
2022-10-06T14:57:00.234Z,15.10
2022-10-06T14:59:30.998Z,15.10
2022-10-06T15:02:01.750Z,15.10
2022-10-06T15:04:32.542Z,15.20
2022-10-06T15:07:21.297Z,15.20
2022-10-06T15:09:52.039Z,15.10
2022-10-06T15:12:22.797Z,15.20
2022-10-06T15:14:54.702Z,15.20
2022-10-06T15:17:25.490Z,15.30
2022-10-06T15:19:56.262Z,15.20
2022-10-06T15:22:28.669Z,15.30
2022-10-06T15:24:59.433Z,15.40
2022-10-06T15:27:46.987Z,15.50
2022-10-06T15:30:17.954Z,15.50
2022-10-06T15:32:50.174Z,15.50
2022-10-06T15:35:20.910Z,15.60
2022-10-06T15:37:56.062Z,15.60
2022-10-06T15:40:26.857Z,15.60
2022-10-06T15:42:57.586Z,15.70
2022-10-06T15:45:28.327Z,15.70
2022-10-06T15:47:59.050Z,15.80
2022-10-06T15:50:29.912Z,15.80
2022-10-06T15:53:02.392Z,16.00
2022-10-06T15:55:33.101Z,16.00
2022-10-06T15:58:03.813Z,16.00
2022-10-06T16:00:35.074Z,16.20
2022-10-06T16:03:23.825Z,16.20
2022-10-06T16:06:00.646Z,16.20
2022-10-06T16:08:35.262Z,16.20
2022-10-06T16:11:06.521Z,16.30
2022-10-06T16:13:37.294Z,16.40
2022-10-06T16:16:09.424Z,16.50
2022-10-06T16:18:40.346Z,16.50
2022-10-06T16:21:11.115Z,16.50
2022-10-06T16:23:43.486Z,16.60
2022-10-06T16:26:14.258Z,16.60
2022-10-06T16:28:45.006Z,16.80
2022-10-06T16:31:15.799Z,16.90
2022-10-06T16:33:46.789Z,17.20
2022-10-06T16:36:19.275Z,17.60
2022-10-06T16:38:53.371Z,18.00
2022-10-06T16:41:24.442Z,18.20
2022-10-06T16:43:56.142Z,18.20
2022-10-06T16:46:28.286Z,18.20
2022-10-06T16:49:00.519Z,18.10
2022-10-06T16:51:32.817Z,18.40
2022-10-06T16:54:07.165Z,18.70
2022-10-06T16:56:39.465Z,18.90
2022-10-06T16:59:15.286Z,19.10
2022-10-06T17:01:46.449Z,19.20
2022-10-06T17:04:18.953Z,19.30
2022-10-06T17:06:51.011Z,19.70
2022-10-06T17:09:24.594Z,19.80
2022-10-06T17:11:57.803Z,20.10
2022-10-06T17:14:29.247Z,20.20
2022-10-06T17:17:00.636Z,20.20
2022-10-06T17:19:32.563Z,20.70
2022-10-06T17:22:03.326Z,21.20
2022-10-06T17:24:35.723Z,21.60
2022-10-06T17:27:06.610Z,21.70
2022-10-06T17:29:37.323Z,21.30
2022-10-06T17:32:08.105Z,21.60
2022-10-06T17:34:40.592Z,23.20
2022-10-06T17:37:11.466Z,24.90
2022-10-06T17:39:47.115Z,25.80
2022-10-06T17:42:18.086Z,26.50
2022-10-06T17:44:48.847Z,27.30
2022-10-06T17:47:19.572Z,27.70
2022-10-06T17:49:50.675Z,26.30
2022-10-06T17:52:24.246Z,27.50
2022-10-06T17:54:57.420Z,27.80
2022-10-06T17:57:29.298Z,27.70
2022-10-06T18:00:00.093Z,28.40
2022-10-06T18:02:30.945Z,28.60
2022-10-06T18:05:01.730Z,27.60
2022-10-06T18:07:32.470Z,28.60
2022-10-06T18:10:21.363Z,28.30
2022-10-06T18:12:52.217Z,27.90
2022-10-06T18:15:22.947Z,26.70
2022-10-06T18:17:53.700Z,26.40
2022-10-06T18:20:30.693Z,27.20
2022-10-06T18:23:01.419Z,27.70
2022-10-06T18:25:33.966Z,28.20
2022-10-06T18:28:04.809Z,28.40
2022-10-06T18:30:36.746Z,28.50
2022-10-06T18:36:12.028Z,27.50
2022-10-06T18:38:45.058Z,28.00
2022-10-06T18:41:19.222Z,28.40
2022-10-06T18:43:49.948Z,27.40
2022-10-06T18:46:38.047Z,27.70
2022-10-06T18:49:13.203Z,28.20
2022-10-06T18:51:45.552Z,28.20
2022-10-06T18:54:18.474Z,28.30
2022-10-06T18:56:52.482Z,28.20
2022-10-06T18:59:27.016Z,29.00
2022-10-06T19:02:01.171Z,28.70
2022-10-06T19:04:33.598Z,29.10
2022-10-06T19:07:04.414Z,28.90
2022-10-06T19:09:35.145Z,28.70
2022-10-06T19:12:07.728Z,28.80
2022-10-06T19:14:43.783Z,28.50
2022-10-06T19:17:15.212Z,28.20
2022-10-06T19:19:46.591Z,28.40
2022-10-06T19:22:17.653Z,27.90
2022-10-06T19:24:49.333Z,27.60
2022-10-06T19:27:24.948Z,27.40
2022-10-06T19:29:57.422Z,27.40
2022-10-06T19:32:32.926Z,27.50
2022-10-06T19:35:07.837Z,27.10
2022-10-06T19:37:42.104Z,26.60
2022-10-06T19:40:13.206Z,27.00
2022-10-06T19:42:50.119Z,26.60
2022-10-06T19:45:21.814Z,26.60
2022-10-06T19:47:52.881Z,26.40
2022-10-06T19:50:23.634Z,26.20
2022-10-06T19:52:54.402Z,25.80
2022-10-06T19:55:25.919Z,25.90
2022-10-06T19:57:58.355Z,26.00
2022-10-06T20:00:29.151Z,26.00
2022-10-06T20:03:00.100Z,25.80
2022-10-06T20:05:30.838Z,25.90
2022-10-06T20:08:02.063Z,26.00
2022-10-06T20:10:33.677Z,26.00
2022-10-06T20:13:07.176Z,26.10
2022-10-06T20:15:38.323Z,26.00
2022-10-06T20:18:09.186Z,26.30
2022-10-06T20:20:39.921Z,26.10
2022-10-06T20:23:10.665Z,26.00
2022-10-06T20:25:41.410Z,26.00
2022-10-06T20:28:14.101Z,26.20
2022-10-06T20:30:50.557Z,26.00
2022-10-06T20:33:21.312Z,26.20
2022-10-06T20:35:52.066Z,26.30
2022-10-06T20:38:43.088Z,26.30
2022-10-06T20:41:12.567Z,26.10
2022-10-06T20:43:45.321Z,26.10
2022-10-06T20:46:16.137Z,26.10
2022-10-06T20:48:46.895Z,26.10
2022-10-06T20:51:17.635Z,26.40
2022-10-06T20:53:48.823Z,26.30
2022-10-06T20:56:19.619Z,26.20
2022-10-06T20:58:52.137Z,26.20
2022-10-06T21:01:25.056Z,26.30
2022-10-06T21:03:56.581Z,26.30
2022-10-06T21:06:27.698Z,26.40
2022-10-06T21:08:59.013Z,26.40
2022-10-06T21:11:29.876Z,26.30
2022-10-06T21:14:02.778Z,26.10
2022-10-06T21:16:35.347Z,26.00
2022-10-06T21:19:08.777Z,26.00
2022-10-06T21:21:40.784Z,26.00
2022-10-06T21:24:12.153Z,26.00
2022-10-06T21:26:43.242Z,26.20
2022-10-06T21:29:16.410Z,26.10
2022-10-06T21:31:47.849Z,26.10
2022-10-06T21:34:18.582Z,26.30
2022-10-06T21:36:49.304Z,26.50
2022-10-06T21:39:20.163Z,26.30
2022-10-06T21:41:50.923Z,26.30
2022-10-06T21:44:23.813Z,26.30
2022-10-06T21:46:55.813Z,26.30
2022-10-06T21:49:29.028Z,26.20
2022-10-06T21:52:04.395Z,26.20
2022-10-06T21:54:35.268Z,26.30
2022-10-06T21:57:05.998Z,26.20
2022-10-06T21:59:38.367Z,26.20
2022-10-06T22:02:09.211Z,26.20
2022-10-06T22:04:41.162Z,26.20
2022-10-06T22:07:11.872Z,26.20
2022-10-06T22:09:42.571Z,26.20
2022-10-06T22:12:13.300Z,26.20
2022-10-06T22:14:45.661Z,26.00
2022-10-06T22:17:16.428Z,26.20
2022-10-06T22:19:47.168Z,26.30
2022-10-06T22:22:17.896Z,26.30
2022-10-06T22:24:49.265Z,26.10
2022-10-06T22:27:20.214Z,26.00
2022-10-06T22:29:52.572Z,26.10
2022-10-06T22:32:24.052Z,26.30
2022-10-06T22:34:54.820Z,26.40
2022-10-06T22:37:25.628Z,26.30
2022-10-06T22:39:56.386Z,26.10
2022-10-06T22:42:27.157Z,26.00
2022-10-06T22:44:59.513Z,25.90
2022-10-06T22:47:30.340Z,25.90
2022-10-06T22:50:01.072Z,26.00
2022-10-06T22:52:31.820Z,26.10
2022-10-06T22:55:02.528Z,26.20
2022-10-06T22:57:34.097Z,26.20
2022-10-06T23:00:06.610Z,26.20
2022-10-06T23:02:37.345Z,26.20
2022-10-06T23:05:08.741Z,26.20
2022-10-06T23:07:39.470Z,26.00
2022-10-06T23:10:11.024Z,26.10
2022-10-06T23:12:41.730Z,26.10
2022-10-06T23:15:14.702Z,26.10
2022-10-06T23:17:46.243Z,26.10
2022-10-06T23:20:17.482Z,26.20
2022-10-06T23:22:48.196Z,26.10
2022-10-06T23:25:20.781Z,26.00
2022-10-06T23:27:53.312Z,26.10
2022-10-06T23:30:25.685Z,26.10
2022-10-06T23:32:56.430Z,26.00
2022-10-06T23:35:27.132Z,26.00
2022-10-06T23:37:57.910Z,26.00
2022-10-06T23:40:28.836Z,26.00
2022-10-06T23:42:59.892Z,25.80
2022-10-06T23:45:32.339Z,25.70
2022-10-06T23:48:03.144Z,25.60
2022-10-06T23:50:33.883Z,25.60
2022-10-06T23:53:04.648Z,25.80
2022-10-06T23:55:35.430Z,25.60
2022-10-06T23:58:06.194Z,25.60
